Terminal Aerodrome Forecast
Issued by NWS Charleston, WV

Current Version | Previous Version | Graphics & Text | Print | Product List | Glossary On
Versions: 1 2 3 4 5 6 7 8 9 10 11 12 13 14 15 16 17 18 19 20 21 22 23 24 25
000
FTUS41 KRLX 060300 AAA
TAFPKB
TAF AMD
KPKB 060300Z 0603/0624 09003KT P6SM BKN150
     FM061400 09006KT 5SM -RA OVC025
     FM061600 10006KT 2SM -RA OVC008
     FM062000 14006KT 3/4SM -RA OVC004
     FM062200 16005KT 1 1/2SM -RA OVC007=

USA.gov is the U.S. government's official web portal to all federal, state and local government web resources and services.